Time;durP1;ratioP1;P1;durP2;ratioP2;P2;SDS_P1;SDS_P2;PMS_P1;PMS_P2;Temp;Humidity;BMP_temperature;BMP_pressure;BME280_temperature;BME280_humidity;BME280_pressure;Samples;Min_cycle;Max_cycle;Signal;HPM_P1;HPM_P2
2023/05/08 00:01:48;;;;;;;0.20;0.20;;;;;;;26.06;37.80;99518.00;1892646;75;28150;-48
2023/05/08 00:04:36;;;;;;;0.20;0.13;;;;;;;26.06;37.83;99521.59;1856847;77;28699;-47
2023/05/08 00:07:24;;;;;;;0.17;0.10;;;;;;;26.09;37.74;99524.38;1891854;75;28056;-46
2023/05/08 00:10:13;;;;;;;0.60;0.20;;;;;;;26.07;37.76;99519.64;1883293;75;28543;-50
2023/05/08 00:13:01;;;;;;;0.08;0.08;;;;;;;26.05;37.78;99517.16;1897570;75;28059;-46
2023/05/08 00:15:50;;;;;;;0.23;0.23;;;;;;;26.06;37.78;99516.08;1885867;75;28118;-48
2023/05/08 00:18:38;;;;;;;1.20;0.30;;;;;;;26.05;37.78;99514.41;1897840;75;28114;-47
2023/05/08 00:21:27;;;;;;;0.50;0.30;;;;;;;26.06;37.76;99511.95;1868348;75;28077;-51
2023/05/08 00:24:15;;;;;;;0.10;0.10;;;;;;;26.07;37.72;99502.59;1884236;75;28161;-48
2023/05/08 00:27:03;;;;;;;0.20;0.20;;;;;;;26.01;37.74;99497.28;1856944;77;28060;-46
2023/05/08 00:29:52;;;;;;;0.20;0.20;;;;;;;26.07;37.74;99498.45;1891031;75;28080;-49
2023/05/08 00:32:40;;;;;;;0.20;0.20;;;;;;;26.08;37.72;99504.80;1876310;75;28159;-49
2023/05/08 00:35:29;;;;;;;0.25;0.25;;;;;;;26.06;37.76;99505.61;1897262;75;28636;-50
2023/05/08 00:38:18;;;;;;;0.15;0.15;;;;;;;26.07;37.80;99504.50;1898118;75;28173;-49
2023/05/08 00:41:06;;;;;;;0.20;0.10;;;;;;;26.08;37.72;99507.02;1884136;75;28189;-48
2023/05/08 00:43:54;;;;;;;0.30;0.30;;;;;;;26.06;37.70;99505.07;1885979;75;28177;-50
2023/05/08 00:46:44;;;;;;;0.30;0.30;;;;;;;26.06;37.75;99500.94;1868687;76;28093;-48
2023/05/08 00:49:34;;;;;;;0.20;0.20;;;;;;;26.03;37.80;99495.94;1877492;76;28224;-48
2023/05/08 00:52:23;;;;;;;0.20;0.20;;;;;;;26.03;37.84;99497.31;1896552;75;28541;-50
2023/05/08 00:55:12;;;;;;;0.33;0.33;;;;;;;26.04;37.83;99496.20;1887311;75;28163;-50
2023/05/08 00:58:01;;;;;;;0.20;0.20;;;;;;;26.06;37.79;99495.44;1856828;77;28061;-45
2023/05/08 01:00:53;;;;;;;0.20;0.20;;;;;;;26.01;37.87;99492.62;1892666;75;28227;-46
2023/05/08 01:03:43;;;;;;;0.15;0.15;;;;;;;26.03;37.90;99490.97;1894090;75;33015;-47
2023/05/08 01:06:38;;;;;;;0.80;0.30;;;;;;;26.03;37.81;99487.68;1881348;75;28068;-46
2023/05/08 01:09:22;;;;;;;0.40;0.40;;;;;;;26.02;37.88;99491.52;1856840;77;28069;-47
2023/05/08 01:12:19;;;;;;;0.30;0.30;;;;;;;26.05;37.84;99497.05;1875218;75;28055;-47
2023/05/08 01:15:20;;;;;;;0.20;0.17;;;;;;;26.02;37.84;99491.52;1888524;75;28185;-45
2023/05/08 01:18:20;;;;;;;0.28;0.28;;;;;;;26.00;37.92;99494.23;1897336;75;28111;-49
2023/05/08 01:21:14;;;;;;;0.20;0.20;;;;;;;25.96;37.99;99492.55;1886305;75;28172;-48
2023/05/08 01:24:31;;;;;;;0.23;0.23;;;;;;;26.00;37.98;99491.48;1869013;76;28529;-49
2023/05/08 01:27:31;;;;;;;0.20;0.20;;;;;;;25.97;38.02;99489.27;1868824;76;28103;-52
2023/05/08 01:30:40;;;;;;;0.20;0.20;;;;;;;25.94;38.12;99493.89;1868937;76;28259;-48
2023/05/08 01:33:47;;;;;;;0.20;0.20;;;;;;;25.92;38.12;99495.54;1878248;75;28055;-50
2023/05/08 01:36:38;;;;;;;0.20;0.20;;;;;;;25.94;38.13;99496.65;1879795;75;28100;-48
2023/05/08 01:39:49;;;;;;;0.20;0.20;;;;;;;25.94;38.14;99492.52;1879593;75;28091;-47
2023/05/08 01:42:52;;;;;;;0.10;0.10;;;;;;;25.93;38.13;99495.81;1893370;75;28584;-49
2023/05/08 01:45:43;;;;;;;0.10;0.10;;;;;;;25.92;38.20;99492.78;1901981;75;28125;-49
2023/05/08 01:48:37;;;;;;;0.10;0.10;;;;;;;25.91;38.17;99491.11;1896406;75;28107;-47
2023/05/08 01:51:28;;;;;;;0.20;0.20;;;;;;;25.95;38.11;99491.44;1891193;75;28265;-46
2023/05/08 01:54:22;;;;;;;0.25;0.25;;;;;;;25.93;38.16;99482.58;1890680;75;28147;-49
2023/05/08 01:57:12;;;;;;;0.45;0.45;;;;;;;25.95;38.13;99483.99;1890482;75;38471;-47
2023/05/08 02:00:03;;;;;;;0.00;0.00;;;;;;;25.94;38.16;99481.51;1895853;75;31156;-48
2023/05/08 02:02:56;;;;;;;0.80;0.23;;;;;;;25.97;38.14;99478.25;1881202;75;28070;-47
2023/05/08 02:05:47;;;;;;;0.17;0.17;;;;;;;25.96;38.14;99480.16;1891103;75;28117;-49
2023/05/08 02:08:37;;;;;;;0.80;0.30;;;;;;;25.94;38.16;99480.97;1896788;75;28129;-48
2023/05/08 02:11:26;;;;;;;0.40;0.20;;;;;;;25.95;38.15;99481.23;1887609;75;28056;-49
2023/05/08 02:14:16;;;;;;;0.10;0.10;;;;;;;25.96;38.14;99481.54;1869215;76;28128;-46
2023/05/08 02:17:08;;;;;;;0.20;0.20;;;;;;;25.94;38.15;99481.51;1894584;74;28207;-52
2023/05/08 02:20:00;;;;;;;0.10;0.10;;;;;;;25.98;38.16;99482.65;1889385;74;28100;-46
2023/05/08 02:22:51;;;;;;;0.23;0.23;;;;;;;25.98;38.13;99484.02;1902376;74;28121;-49
2023/05/08 02:25:41;;;;;;;0.30;0.30;;;;;;;25.98;38.08;99482.11;1878482;76;28174;-48
2023/05/08 02:28:32;;;;;;;1.20;0.20;;;;;;;25.97;38.12;99476.88;1898614;74;33445;-47
2023/05/08 02:31:24;;;;;;;0.05;0.05;;;;;;;25.97;38.11;99479.62;1900880;74;28156;-49
2023/05/08 02:34:13;;;;;;;0.17;0.17;;;;;;;25.96;38.12;99482.91;1902046;74;28599;-49
2023/05/08 02:37:04;;;;;;;0.20;0.20;;;;;;;25.94;38.16;99483.72;1878333;76;28139;-49
2023/05/08 02:39:56;;;;;;;0.17;0.17;;;;;;;25.96;38.19;99488.95;1887627;74;38486;-47
2023/05/08 02:42:45;;;;;;;0.20;0.20;;;;;;;25.94;38.19;99483.72;1909503;74;28110;-46
2023/05/08 02:45:40;;;;;;;0.10;0.10;;;;;;;25.94;38.19;99484.26;1904256;74;28055;-50
2023/05/08 02:48:32;;;;;;;0.13;0.13;;;;;;;25.95;38.19;99487.31;1883354;75;28232;-50
2023/05/08 02:51:41;;;;;;;0.10;0.10;;;;;;;25.95;38.20;99481.23;1893983;74;28114;-44
2023/05/08 02:54:32;;;;;;;0.10;0.10;;;;;;;25.94;38.18;99472.71;1897313;74;28133;-48
2023/05/08 02:57:23;;;;;;;0.17;0.17;;;;;;;25.93;38.21;99481.20;1904893;74;28103;-46
2023/05/08 03:00:21;;;;;;;0.13;0.13;;;;;;;25.95;38.22;99481.23;1904103;74;28091;-47
2023/05/08 03:03:15;;;;;;;0.05;0.05;;;;;;;25.97;38.20;99476.88;1883589;75;28114;-47
2023/05/08 03:06:06;;;;;;;0.60;0.20;;;;;;;25.95;38.22;99477.11;1866815;76;28145;-48
2023/05/08 03:08:57;;;;;;;0.10;0.10;;;;;;;25.92;38.25;99472.68;1878327;76;28044;-46
2023/05/08 03:11:48;;;;;;;0.50;0.20;;;;;;;25.94;38.23;99475.47;1890541;74;28120;-46
2023/05/08 03:14:40;;;;;;;0.20;0.20;;;;;;;25.94;38.25;99477.38;1903364;74;28114;-46
2023/05/08 03:17:31;;;;;;;0.28;0.28;;;;;;;25.94;38.24;99476.00;1878422;76;28149;-49
2023/05/08 03:20:21;;;;;;;1.60;0.20;;;;;;;25.95;38.25;99472.17;1868305;75;28056;-47
2023/05/08 03:23:12;;;;;;;0.10;0.10;;;;;;;25.93;38.25;99468.28;1864514;75;28246;-45
2023/05/08 03:26:02;;;;;;;0.20;0.20;;;;;;;25.96;38.23;99464.19;1866944;76;28114;-47
2023/05/08 03:28:53;;;;;;;0.13;0.13;;;;;;;25.96;38.25;99465.56;1863837;76;28108;-49
2023/05/08 03:31:44;;;;;;;0.20;0.20;;;;;;;25.96;38.23;99463.65;1868626;75;28061;-46
2023/05/08 03:34:34;;;;;;;0.20;0.20;;;;;;;25.96;38.23;99462.27;1869170;75;28206;-46
2023/05/08 03:37:23;;;;;;;0.20;0.20;;;;;;;25.95;38.22;99461.97;1872436;75;28202;-48
2023/05/08 03:40:13;;;;;;;0.00;0.00;;;;;;;25.96;38.23;99460.90;1870710;75;28067;-48
2023/05/08 03:43:03;;;;;;;0.10;0.10;;;;;;;25.95;38.25;99461.97;1881564;75;28089;-49
2023/05/08 03:45:52;;;;;;;0.20;0.20;;;;;;;25.97;38.25;99458.45;1878036;75;28225;-50
2023/05/08 03:48:42;;;;;;;0.90;0.40;;;;;;;25.97;38.24;99465.33;1873689;75;28060;-45
2023/05/08 03:51:32;;;;;;;0.20;0.20;;;;;;;25.97;38.27;99467.24;1863410;76;28055;-48
2023/05/08 03:54:24;;;;;;;0.23;0.23;;;;;;;25.96;38.28;99477.41;1868036;75;28130;-48
2023/05/08 03:57:10;;;;;;;0.00;0.00;;;;;;;25.95;38.29;99470.23;1887139;75;28057;-47
2023/05/08 04:00:05;;;;;;;1.40;0.30;;;;;;;25.97;38.28;99470.83;1872510;75;28112;-47
2023/05/08 04:03:01;;;;;;;0.40;0.20;;;;;;;25.95;38.31;99468.05;1864089;76;28090;-47
2023/05/08 04:05:53;;;;;;;0.17;0.17;;;;;;;25.94;38.30;99467.20;1868754;75;28056;-46
2023/05/08 04:08:50;;;;;;;2.20;0.10;;;;;;;25.95;38.30;99475.73;1884692;75;28157;-48
2023/05/08 04:11:44;;;;;;;0.10;0.10;;;;;;;25.95;38.32;99469.42;1877842;75;28074;-49
2023/05/08 04:14:36;;;;;;;0.40;0.20;;;;;;;25.94;38.34;99467.20;1871083;75;28190;-48
2023/05/08 04:17:28;;;;;;;0.10;0.10;;;;;;;25.94;38.34;99469.13;1862956;76;28047;-46
2023/05/08 04:20:20;;;;;;;0.20;0.20;;;;;;;25.95;38.32;99469.42;1896640;74;28602;-50
2023/05/08 04:23:11;;;;;;;0.20;0.20;;;;;;;25.93;38.36;99481.20;1899820;74;28091;-47
2023/05/08 04:26:02;;;;;;;2.30;0.37;;;;;;;25.94;38.32;99480.13;1892189;74;28115;-46
2023/05/08 04:28:52;;;;;;;0.30;0.30;;;;;;;25.96;38.33;99483.45;1878283;76;28201;-48
2023/05/08 04:31:42;;;;;;;0.10;0.10;;;;;;;25.96;38.33;99482.08;1878238;76;28127;-47
2023/05/08 04:34:32;;;;;;;0.10;0.10;;;;;;;25.96;38.30;99486.20;1902114;74;28612;-47
2023/05/08 04:37:30;;;;;;;0.20;0.20;;;;;;;25.98;38.28;99480.73;1902939;74;28080;-50
2023/05/08 04:40:19;;;;;;;0.10;0.10;;;;;;;25.96;38.31;99476.03;1878486;76;28168;-49
2023/05/08 04:43:09;;;;;;;0.10;0.10;;;;;;;25.96;38.28;99476.58;1898033;74;28048;-46
2023/05/08 04:45:58;;;;;;;0.20;0.20;;;;;;;25.97;38.33;99474.13;1899398;74;28056;-48
2023/05/08 04:48:47;;;;;;;0.17;0.17;;;;;;;25.96;38.33;99477.41;1904799;74;28156;-48
2023/05/08 04:51:35;;;;;;;0.10;0.10;;;;;;;25.96;38.31;99476.03;1878467;76;31042;-45
2023/05/08 04:54:24;;;;;;;0.23;0.23;;;;;;;25.96;38.29;99478.78;1896933;74;28113;-49
2023/05/08 04:57:13;;;;;;;0.13;0.13;;;;;;;25.98;38.31;99483.48;1900715;74;28107;-45
2023/05/08 05:00:02;;;;;;;0.13;0.13;;;;;;;26.00;38.30;99484.59;1892293;74;28123;-49
2023/05/08 05:02:51;;;;;;;0.20;0.20;;;;;;;25.99;38.27;99478.28;1881912;74;28202;-49
2023/05/08 05:05:39;;;;;;;0.20;0.20;;;;;;;25.98;38.29;99480.73;1888022;74;28075;-48
2023/05/08 05:08:28;;;;;;;0.17;0.17;;;;;;;26.00;38.26;99482.68;1888824;74;28170;-49
2023/05/08 05:11:17;;;;;;;0.20;0.20;;;;;;;26.03;38.22;99489.06;1877324;76;28110;-48
2023/05/08 05:14:06;;;;;;;0.30;0.30;;;;;;;26.04;38.16;99481.07;1883918;75;28225;-49
2023/05/08 05:16:56;;;;;;;0.10;0.10;;;;;;;26.03;38.14;99493.19;1901909;74;28089;-50
2023/05/08 05:19:44;;;;;;;0.30;0.30;;;;;;;26.02;38.19;99491.52;1878252;74;28105;-46
2023/05/08 05:22:33;;;;;;;0.70;0.30;;;;;;;26.00;38.26;99494.23;1875507;76;28087;-47
2023/05/08 05:25:22;;;;;;;0.40;0.40;;;;;;;26.02;38.17;99498.39;1903780;75;28051;-49
2023/05/08 05:28:11;;;;;;;0.10;0.10;;;;;;;26.02;38.15;99495.64;1895402;75;28048;-47
2023/05/08 05:31:00;;;;;;;0.17;0.17;;;;;;;26.02;38.16;99491.52;1872553;76;28216;-47
2023/05/08 05:33:49;;;;;;;0.28;0.28;;;;;;;26.01;38.12;99495.91;1882061;75;27941;-46
2023/05/08 05:36:38;;;;;;;0.10;0.10;;;;;;;26.03;38.11;99504.20;1897889;75;28158;-49
2023/05/08 05:39:26;;;;;;;0.20;0.20;;;;;;;26.00;38.17;99512.13;1879499;75;28121;-51
2023/05/08 05:42:15;;;;;;;0.25;0.25;;;;;;;26.02;38.13;99513.53;1890529;75;28134;-49
2023/05/08 05:45:05;;;;;;;0.53;0.53;;;;;;;25.99;38.14;99512.69;1897422;75;28096;-49
2023/05/08 05:47:54;;;;;;;0.40;0.40;;;;;;;25.94;38.17;99511.78;1878587;75;28185;-49
2023/05/08 05:50:43;;;;;;;0.42;0.42;;;;;;;25.90;38.16;99515.61;1886737;75;28401;-51
2023/05/08 05:53:33;;;;;;;0.33;0.33;;;;;;;25.85;38.17;99517.45;1889576;74;28064;-49
2023/05/08 05:56:22;;;;;;;0.40;0.40;;;;;;;25.79;38.38;99513.79;1883841;74;28152;-49
2023/05/08 05:59:11;;;;;;;0.28;0.28;;;;;;;25.78;38.39;99519.56;1895277;75;28150;-46
2023/05/08 06:01:59;;;;;;;0.37;0.30;;;;;;;25.81;38.41;99519.06;1892659;74;28084;-48
2023/05/08 06:04:48;;;;;;;1.30;0.40;;;;;;;25.79;38.42;99517.91;1876707;74;28114;-50
2023/05/08 06:07:37;;;;;;;0.25;0.25;;;;;;;25.78;38.53;99519.02;1872535;76;28172;-50
2023/05/08 06:10:26;;;;;;;0.23;0.23;;;;;;;25.77;38.54;99514.59;1892936;75;28185;-46
2023/05/08 06:13:15;;;;;;;0.30;0.30;;;;;;;25.81;38.56;99525.37;1893024;74;28160;-48
2023/05/08 06:16:03;;;;;;;0.20;0.20;;;;;;;25.84;38.52;99531.75;1904878;75;28114;-50
2023/05/08 06:18:52;;;;;;;0.20;0.20;;;;;;;25.86;38.55;99535.07;1879244;75;28068;-49
2023/05/08 06:21:40;;;;;;;0.20;0.20;;;;;;;25.88;38.52;99529.34;1882588;74;30996;-49
2023/05/08 06:24:29;;;;;;;0.20;0.20;;;;;;;25.89;38.55;99522.19;1901477;74;28176;-48
2023/05/08 06:27:17;;;;;;;0.20;0.20;;;;;;;25.91;38.55;99520.55;1891508;74;28091;-47
2023/05/08 06:30:09;;;;;;;0.30;0.30;;;;;;;25.91;38.56;99524.13;1900256;74;28584;-51
2023/05/08 06:32:57;;;;;;;0.30;0.30;;;;;;;25.94;38.52;99528.30;1888329;74;28059;-52
2023/05/08 06:35:47;;;;;;;0.35;0.33;;;;;;;25.92;38.56;99520.31;1910648;74;28216;-47
2023/05/08 06:38:35;;;;;;;0.20;0.20;;;;;;;25.93;38.59;99516.98;1895205;74;28235;-50
2023/05/08 06:41:24;;;;;;;0.30;0.30;;;;;;;25.93;38.50;99516.45;1899503;74;28137;-51
2023/05/08 06:44:12;;;;;;;0.30;0.30;;;;;;;25.95;38.52;99514.84;1888554;74;28122;-50
2023/05/08 06:47:01;;;;;;;0.40;0.20;;;;;;;25.97;38.45;99508.53;1898899;74;28233;-49
2023/05/08 06:49:49;;;;;;;0.20;0.20;;;;;;;25.93;38.43;99496.34;1878514;74;28184;-50
2023/05/08 06:52:38;;;;;;;0.30;0.30;;;;;;;25.97;38.46;99504.40;1906134;74;28158;-50
2023/05/08 06:55:26;;;;;;;0.20;0.20;;;;;;;25.98;38.40;99510.17;1884417;74;28317;-49
2023/05/08 06:58:14;;;;;;;0.23;0.23;;;;;;;25.97;38.44;99510.75;1894528;74;28150;-51
2023/05/08 07:01:02;;;;;;;0.20;0.20;;;;;;;25.97;38.42;99505.23;1883666;74;28220;-51
2023/05/08 07:03:50;;;;;;;0.50;0.30;;;;;;;25.99;38.41;99514.06;1887388;74;28177;-47
2023/05/08 07:06:39;;;;;;;0.20;0.20;;;;;;;25.99;38.40;99512.69;1903809;74;28103;-49
2023/05/08 07:09:27;;;;;;;0.28;0.28;;;;;;;25.99;38.44;99510.48;1878262;76;28102;-48
2023/05/08 07:12:16;;;;;;;0.17;0.17;;;;;;;26.02;38.38;99513.53;1885926;74;28107;-46
2023/05/08 07:15:05;;;;;;;0.13;0.10;;;;;;;26.00;38.37;99510.20;1910346;74;28119;-51
2023/05/08 07:17:54;;;;;;;0.25;0.25;;;;;;;26.01;38.40;99513.80;1896420;75;28106;-50
2023/05/08 07:20:42;;;;;;;0.30;0.30;;;;;;;26.00;38.42;99515.71;1890185;74;28533;-45
2023/05/08 07:23:31;;;;;;;0.10;0.10;;;;;;;26.04;38.37;99511.92;1894160;74;28138;-48
2023/05/08 07:26:20;;;;;;;0.20;0.20;;;;;;;26.04;38.34;99512.73;1879898;75;28159;-50
2023/05/08 07:29:08;;;;;;;0.20;0.20;;;;;;;26.03;38.32;99506.95;1895726;75;28112;-48
2023/05/08 07:31:57;;;;;;;0.10;0.10;;;;;;;26.03;38.37;99505.58;1897754;75;28103;-49
2023/05/08 07:34:45;;;;;;;0.30;0.30;;;;;;;26.01;38.37;99507.76;1871675;74;28162;-49
2023/05/08 07:37:33;;;;;;;0.50;0.50;;;;;;;26.05;38.39;99511.66;1898753;75;28111;-46
2023/05/08 07:40:21;;;;;;;0.30;0.30;;;;;;;26.04;38.42;99509.98;1868933;76;28682;-49
2023/05/08 07:43:12;;;;;;;0.30;0.30;;;;;;;26.07;38.35;99512.22;1898624;75;28080;-49
2023/05/08 07:46:00;;;;;;;0.30;0.30;;;;;;;26.08;38.34;99508.93;1898256;75;28166;-52
2023/05/08 07:48:48;;;;;;;0.20;0.20;;;;;;;26.05;38.42;99507.52;1865945;75;28137;-51
2023/05/08 07:51:37;;;;;;;0.30;0.30;;;;;;;26.07;38.44;99498.99;1901537;75;38455;-50
2023/05/08 07:54:25;;;;;;;0.30;0.30;;;;;;;26.09;38.45;99510.04;1893493;75;28095;-63
2023/05/08 07:57:14;;;;;;;0.30;0.30;;;;;;;26.07;38.46;99509.47;1879540;75;28092;-64
2023/05/08 08:00:03;;;;;;;0.10;0.10;;;;;;;26.06;38.52;99504.23;1895338;75;28151;-61
2023/05/08 08:02:53;;;;;;;0.10;0.10;;;;;;;26.08;38.52;99503.42;1869066;76;28064;-60
2023/05/08 08:05:41;;;;;;;0.28;0.28;;;;;;;26.11;38.51;99502.95;1889274;75;30104;-61
2023/05/08 08:08:30;;;;;;;0.60;0.20;;;;;;;26.12;38.54;99505.14;1879795;75;28493;-61
2023/05/08 08:11:18;;;;;;;0.20;0.20;;;;;;;26.12;38.48;99507.35;1895447;75;28364;-63
2023/05/08 08:14:07;;;;;;;0.40;0.30;;;;;;;26.13;38.47;99500.77;1897686;75;28085;-61
2023/05/08 08:16:55;;;;;;;0.13;0.13;;;;;;;26.14;38.45;99498.86;1893909;75;28192;-61
2023/05/08 08:19:44;;;;;;;0.13;0.13;;;;;;;26.12;38.51;99497.72;1864339;76;28271;-62
2023/05/08 08:22:32;;;;;;;0.30;0.30;;;;;;;26.12;38.51;99496.88;1867848;75;28048;-61
2023/05/08 08:25:21;;;;;;;0.20;0.20;;;;;;;26.11;38.52;99502.95;1863902;76;28060;-61
2023/05/08 08:28:09;;;;;;;1.00;0.30;;;;;;;26.15;38.49;99490.86;1894942;75;28044;-62
2023/05/08 08:30:57;;;;;;;0.20;0.20;;;;;;;26.17;38.42;99494.19;1876494;75;28230;-61
2023/05/08 08:33:46;;;;;;;0.20;0.20;;;;;;;26.18;38.42;99493.11;1856418;75;28092;-62
2023/05/08 08:36:34;;;;;;;0.20;0.20;;;;;;;26.17;38.40;99495.03;1877690;75;28055;-63
2023/05/08 08:39:22;;;;;;;0.13;0.13;;;;;;;26.17;38.42;99491.44;1867590;75;28138;-61
2023/05/08 08:42:11;;;;;;;0.15;0.15;;;;;;;26.18;38.43;99487.61;1895779;75;28177;-61
2023/05/08 08:45:00;;;;;;;0.10;0.10;;;;;;;26.16;38.49;99488.41;1856814;77;28080;-61
2023/05/08 08:47:50;;;;;;;0.20;0.20;;;;;;;26.13;38.57;99493.05;1881051;75;28163;-61
2023/05/08 08:50:42;;;;;;;0.30;0.30;;;;;;;26.18;38.58;99491.73;1883222;75;28064;-61
2023/05/08 08:53:35;;;;;;;0.20;0.20;;;;;;;26.17;38.58;99488.68;1901127;75;28212;-62
2023/05/08 08:56:24;;;;;;;0.10;0.10;;;;;;;26.17;38.61;99479.88;1856745;77;28161;-61
2023/05/08 08:59:15;;;;;;;0.37;0.37;;;;;;;26.17;38.62;99484.55;1875326;75;28486;-61
2023/05/08 09:02:10;;;;;;;0.10;0.10;;;;;;;26.19;38.64;99482.37;1886580;75;30983;-62
2023/05/08 09:04:59;;;;;;;2.20;0.25;;;;;;;26.18;38.64;99480.72;1884246;75;28124;-60
2023/05/08 09:07:47;;;;;;;0.20;0.20;;;;;;;26.17;38.69;99481.80;1856752;77;28123;-62
2023/05/08 09:10:36;;;;;;;0.08;0.08;;;;;;;26.20;38.73;99477.16;1862000;76;28053;-61
2023/05/08 09:13:25;;;;;;;3.70;0.40;;;;;;;26.19;38.75;99480.45;1898563;75;28166;-63
2023/05/08 09:16:13;;;;;;;0.10;0.10;;;;;;;26.20;38.74;99484.05;1884992;75;28092;-60
2023/05/08 09:19:03;;;;;;;0.17;0.17;;;;;;;26.19;38.71;99480.45;1868934;76;28112;-53
2023/05/08 09:21:52;;;;;;;0.33;0.33;;;;;;;26.23;39.40;99487.12;1861984;75;28197;-52
2023/05/08 09:24:52;;;;;;;0.50;0.30;;;;;;;26.22;39.01;99488.20;1895313;74;28120;-46
2023/05/08 09:27:40;;;;;;;0.40;0.40;;;;;;;26.22;38.96;99485.98;1874601;75;28143;-49
2023/05/08 09:30:28;;;;;;;0.30;0.30;;;;;;;26.19;38.90;99522.30;1868876;75;28103;-47
2023/05/08 09:33:17;;;;;;;0.45;0.45;;;;;;;26.19;38.81;99499.72;1899352;75;28064;-47
2023/05/08 09:36:08;;;;;;;0.37;0.37;;;;;;;26.22;38.68;99497.00;1888337;75;28212;-47
2023/05/08 09:38:56;;;;;;;1.80;0.40;;;;;;;26.24;38.58;99500.33;1897896;75;28056;-46
2023/05/08 09:41:59;;;;;;;1.95;0.72;;;;;;;26.24;38.65;99497.57;1889880;75;28182;-48
2023/05/08 09:44:54;;;;;;;0.45;0.45;;;;;;;26.25;38.63;99497.87;1878328;75;28225;-47
2023/05/08 09:47:46;;;;;;;0.50;0.50;;;;;;;26.23;38.63;99495.92;1855612;76;32104;-45
2023/05/08 09:50:34;;;;;;;0.42;0.42;;;;;;;26.11;38.66;99524.14;1856226;77;28096;-46
2023/05/08 09:53:25;;;;;;;0.55;0.55;;;;;;;26.12;38.69;99516.15;1879394;75;28064;-45
2023/05/08 09:56:13;;;;;;;0.55;0.55;;;;;;;26.14;38.78;99508.49;1898050;75;28140;-45
2023/05/08 09:59:05;;;;;;;0.60;0.60;;;;;;;26.13;38.90;99516.45;1885344;75;28165;-46
2023/05/08 10:01:54;;;;;;;0.47;0.47;;;;;;;26.15;38.88;99512.36;1889064;75;28059;-47
2023/05/08 10:04:43;;;;;;;0.67;0.67;;;;;;;26.19;38.87;99512.66;1873841;75;28108;-44
2023/05/08 10:07:35;;;;;;;0.60;0.60;;;;;;;26.22;38.85;99508.86;1878001;75;28063;-47
2023/05/08 10:10:26;;;;;;;0.68;0.68;;;;;;;26.21;38.79;99511.31;1867259;75;28185;-45
2023/05/08 10:13:15;;;;;;;1.20;0.45;;;;;;;26.24;38.83;99508.59;1895425;75;28143;-49
2023/05/08 10:16:03;;;;;;;0.60;0.53;;;;;;;26.24;38.87;99501.16;1886010;75;28079;-45
2023/05/08 10:18:56;;;;;;;1.10;1.10;;;;;;;26.25;38.90;99507.52;1884083;75;28064;-45
2023/05/08 10:21:47;;;;;;;0.67;0.67;;;;;;;26.28;38.94;99511.94;1883700;75;28127;-51
2023/05/08 10:24:38;;;;;;;0.60;0.60;;;;;;;26.27;38.96;99498.44;1883062;75;28173;-53
2023/05/08 10:27:30;;;;;;;0.95;0.68;;;;;;;26.29;39.02;99500.39;1868580;76;28651;-52
2023/05/08 10:30:22;;;;;;;0.62;0.62;;;;;;;26.25;39.03;99500.09;1856608;77;28136;-53
2023/05/08 10:33:12;;;;;;;1.50;0.70;;;;;;;26.29;38.91;99503.14;1879654;75;28063;-54
2023/05/08 10:36:01;;;;;;;0.62;0.47;;;;;;;26.29;38.88;99503.14;1866995;75;28284;-55
2023/05/08 10:38:51;;;;;;;0.60;0.60;;;;;;;26.30;38.81;99504.82;1870195;76;28261;-52
2023/05/08 10:41:40;;;;;;;2.62;0.72;;;;;;;26.35;38.80;99502.94;1856748;77;28169;-52
2023/05/08 10:44:29;;;;;;;2.00;0.70;;;;;;;26.34;38.85;99504.04;1889778;75;28154;-55
2023/05/08 10:47:43;;;;;;;0.90;0.57;;;;;;;26.35;38.88;99505.69;1884026;75;28195;-54
2023/05/08 10:50:40;;;;;;;1.30;0.50;;;;;;;26.35;38.85;99500.75;1868526;75;28019;-55
2023/05/08 10:53:38;;;;;;;0.62;0.62;;;;;;;26.36;38.85;99498.26;1896304;75;28134;-55
2023/05/08 10:56:27;;;;;;;0.60;0.60;;;;;;;26.33;38.97;99493.27;1885672;75;28154;-53
2023/05/08 10:59:20;;;;;;;1.15;0.85;;;;;;;26.31;39.01;99490.78;1884289;75;28225;-54
2023/05/08 11:02:08;;;;;;;2.10;0.50;;;;;;;26.36;38.85;99492.75;1889546;75;28127;-53
2023/05/08 11:05:15;;;;;;;2.20;0.60;;;;;;;26.36;38.83;99490.84;1882896;75;28131;-54
2023/05/08 11:08:05;;;;;;;0.70;0.70;;;;;;;26.34;39.09;99488.05;1859080;75;28116;-53
2023/05/08 11:10:56;;;;;;;0.78;0.65;;;;;;;26.34;39.15;99488.05;1856798;77;28101;-56
2023/05/08 11:13:59;;;;;;;1.30;0.80;;;;;;;26.38;39.15;99487.81;1883629;75;28138;-55
2023/05/08 11:16:58;;;;;;;0.70;0.70;;;;;;;26.37;39.21;99471.02;1882776;75;28373;-52
2023/05/08 11:19:49;;;;;;;0.50;0.50;;;;;;;26.37;39.18;99473.20;1884091;75;28077;-45
2023/05/08 11:22:37;;;;;;;1.20;1.10;;;;;;;26.36;39.38;99470.18;1855801;77;28159;-52
2023/05/08 11:25:38;;;;;;;1.40;0.55;;;;;;;26.35;39.75;99471.25;1869278;75;28215;-48
2023/05/08 11:28:26;;;;;;;1.10;1.00;;;;;;;26.38;39.70;99458.35;1818070;76;30380;-48
2023/05/08 11:31:15;;;;;;;0.72;0.62;;;;;;;26.37;39.65;99457.25;1908126;74;35279;-48
2023/05/08 11:34:03;;;;;;;0.95;0.65;;;;;;;26.44;39.66;99457.87;1903332;74;28190;-48
2023/05/08 11:37:02;;;;;;;0.62;0.62;;;;;;;26.44;39.57;99453.73;1877278;76;28111;-47
2023/05/08 11:39:50;;;;;;;1.00;0.47;;;;;;;26.42;39.61;99460.86;1884021;74;28119;-51
2023/05/08 11:42:39;;;;;;;0.50;0.50;;;;;;;26.45;39.64;99454.84;1888257;74;28249;-51
2023/05/08 11:45:27;;;;;;;0.50;0.50;;;;;;;26.47;39.58;99462.30;1904432;74;28146;-50
2023/05/08 11:48:18;;;;;;;0.70;0.70;;;;;;;26.48;39.61;99459.84;1877367;76;28126;-54
2023/05/08 11:51:07;;;;;;;0.60;0.60;;;;;;;26.52;39.56;99472.53;1891326;74;28208;-50
2023/05/08 11:53:58;;;;;;;0.60;0.60;;;;;;;26.52;39.55;99454.08;1877243;74;28560;-49
2023/05/08 11:56:47;;;;;;;0.80;0.63;;;;;;;26.51;39.49;99457.91;1901933;75;28125;-51
2023/05/08 11:59:36;;;;;;;1.10;0.82;;;;;;;26.50;39.38;99473.34;1877650;76;28256;-48
2023/05/08 12:02:42;;;;;;;0.60;0.60;;;;;;;26.51;39.51;99466.75;1877886;76;28609;-49
2023/05/08 12:05:30;;;;;;;0.57;0.57;;;;;;;26.49;39.50;99453.79;1899461;74;28184;-46
2023/05/08 12:08:18;;;;;;;0.55;0.55;;;;;;;26.47;39.64;99451.81;1877727;76;28277;-50
2023/05/08 12:11:07;;;;;;;0.90;0.62;;;;;;;26.47;39.60;99450.44;1891219;74;28172;-48
2023/05/08 12:13:55;;;;;;;0.80;0.80;;;;;;;26.50;39.67;99455.44;1901628;74;28153;-52
2023/05/08 12:16:44;;;;;;;0.80;0.80;;;;;;;26.53;39.53;99438.39;1904706;75;28138;-46
2023/05/08 12:19:32;;;;;;;0.90;0.53;;;;;;;26.55;39.56;99450.81;1898857;75;28057;-49
2023/05/08 12:22:21;;;;;;;0.60;0.60;;;;;;;26.52;39.58;99435.34;1877834;76;28180;-47
2023/05/08 12:25:11;;;;;;;0.60;0.60;;;;;;;26.51;39.66;99443.34;1896972;75;28099;-47
2023/05/08 12:28:00;;;;;;;0.50;0.50;;;;;;;26.51;39.56;99444.14;1904364;75;28119;-48
2023/05/08 12:30:49;;;;;;;0.77;0.50;;;;;;;26.46;39.66;99430.89;1894473;74;28111;-51
2023/05/08 12:33:38;;;;;;;0.70;0.50;;;;;;;26.51;39.73;99440.58;1906678;74;28438;-49
2023/05/08 12:36:27;;;;;;;0.47;0.47;;;;;;;26.50;39.69;99442.50;1899512;75;28000;-52
2023/05/08 12:39:18;;;;;;;0.60;0.60;;;;;;;26.54;39.74;99442.25;1899117;74;28227;-47
2023/05/08 12:42:06;;;;;;;0.62;0.62;;;;;;;26.54;39.63;99442.25;1904925;74;28059;-45
2023/05/08 12:44:55;;;;;;;0.70;0.68;;;;;;;26.52;39.58;99440.84;1906807;74;28245;-49
2023/05/08 12:47:46;;;;;;;0.80;0.50;;;;;;;26.51;39.72;99435.08;1904406;74;28183;-48
2023/05/08 12:50:39;;;;;;;0.50;0.50;;;;;;;26.54;39.75;99427.64;1888759;75;28193;-46
2023/05/08 12:53:30;;;;;;;0.55;0.55;;;;;;;26.54;39.77;99423.51;1877861;76;28184;-51
2023/05/08 12:56:21;;;;;;;0.50;0.50;;;;;;;26.55;39.87;99423.80;1901119;75;28202;-48
2023/05/08 12:59:10;;;;;;;0.57;0.55;;;;;;;26.53;39.89;99428.75;1887490;74;28067;-49
2023/05/08 13:01:58;;;;;;;0.57;0.57;;;;;;;26.53;39.98;99424.62;1887750;74;28155;-50
2023/05/08 13:04:46;;;;;;;0.90;0.72;;;;;;;26.54;39.90;99420.21;1877598;76;28193;-48
2023/05/08 13:07:35;;;;;;;0.50;0.50;;;;;;;26.54;39.95;99413.32;1902241;74;28138;-46
2023/05/08 13:10:24;;;;;;;1.50;0.62;;;;;;;26.55;39.92;99414.16;1901036;74;28457;-47
2023/05/08 13:13:13;;;;;;;0.67;0.67;;;;;;;26.52;39.95;99414.14;1902862;75;28572;-48
2023/05/08 13:16:07;;;;;;;0.60;0.60;;;;;;;26.53;40.04;99413.05;1892528;75;28027;-50
2023/05/08 13:18:55;;;;;;;0.55;0.55;;;;;;;26.54;40.04;99402.30;1906202;74;28123;-45
2023/05/08 13:21:51;;;;;;;0.45;0.45;;;;;;;26.56;39.98;99403.41;1899749;75;28064;-48
2023/05/08 13:24:34;;;;;;;0.70;0.70;;;;;;;26.55;40.10;99388.83;1887632;75;28100;-51